Share

Rhodes, Greece

10:35 AM EEST on April 24, 2014 (GMT +0300)
Diagoras (LGRP) Elev 36 ft | 36.41 °N, 28.09 °E | Change Station

Current weather conditions updated 15 minutes ago

Partly Cloudy
Partly Cloudy
72 °F
Feels Like 72 °F
N
15
Wind Variable Wind from ENE
Sunrise 6:22 AM
Sunset 7:49 PM
Moon Waning Crescent

Today is forecast to be Cooler than yesterday.

Pressure 29.86 in
Visibility 6.2 miles
Clouds Few 1800 ft
Dew Point 64 °F
Humidity 78%
Rainfall 0.00 in
Snow Depth Not available.
UV 7 out of 16
Pollen Not available.
Air Quality Not available.
Flu Activity Not available.
METAR LGRP 240720Z 06013KT 9999 FEW018 22/18 Q1011 NOSIG

More Conditions Fewer Conditions

Pressure 29.86 in
Visibility 6.2 miles
Clouds Few 1800 ft
Dew Point 64 °F
Humidity 78%
Rainfall 0.00 in
Snow Depth Not available.
UV 7 out of 16
Pollen Not available.
Air Quality Not available.
Flu Activity Not available.
METAR LGRP 240720Z 06013KT 9999 FEW018 22/18 Q1011 NOSIG

More Conditions Fewer Conditions

10-Day Weather Forecast

Almanac

Astronomy

Apr. 24, 2014 Rise Set
Actual Time 6:22 AM EEST 7:49 PM EEST
Civil Twilight 5:55 AM EEST 8:16 PM EEST
Nautical Twilight 5:23 AM EEST 8:49 PM EEST
Astronomical Twilight 4:49 AM EEST 9:23 PM EEST
Moon 3:12 AM EEST 2:51 PM EEST
Length of Visible Light 14h 20m
Length of Day
13h 26m
Tomorrow will be 2m 6s longer.
Waning Crescent, 28% of the Moon is Illuminated
Today
Waning Crescent
Apr 29
New
May 6
First Quarter
May 14
Full
May 21
Last Quarter

Yesterday's Extremes

Country Highs Country Lows

Community

  • Stacked
    Stacked
  • clouds approaching Red Sox Nation
    clouds approaching Red Sox Nation
  • Balance
    Balance
  • Nestled In
    Nestled In
  • Stunning Sunrise
    Stunning Sunrise

WunderPhotos

Upload Photos

1,704,571 photos uploaded!

WunderBlogs® & News

Nearby

Snow Depth

Not available.

Coastal Water Temperatures

Place Temperature
No Stations Reporting

Earthquake Activity

City Distance Mag. Time & Date
No recent earthquake activity has been reported nearby.
Minimum magnitude displayed is 2.5.

Nearby Weather Stations

Station Location Temp. Heat Index Dew Point Humidity Wind Precip. Elev Updated Type
Surf and Kite Theologos, Theologos 70.2 °F 72 °F 63 °F 77% North  at  - 0.00 in / hr 50 ft 8:45 AM EEST Rapid Fire

Show More Stations Show Fewer Stations

What do you think?

We're not finished. Please let us know what you like, what you don't like, and what you are still missing.